Time;durP1;ratioP1;P1;durP2;ratioP2;P2;SDS_P1;SDS_P2;PMS_P1;PMS_P2;Temp;Humidity;BMP_temperature;BMP_pressure;BME280_temperature;BME280_humidity;BME280_pressure;Samples;Min_cycle;Max_cycle;Signal;HPM_P1;HPM_P2
2021/12/12 00:00:49;;;;;;;13.23;4.73;;;6.20;99.90;;;;;;5052118;28;20229;-59
2021/12/12 00:03:31;;;;;;;6.43;3.83;;;6.30;99.90;;;;;;5052325;28;20700;-59
2021/12/12 00:06:00;;;;;;;9.73;4.13;;;6.40;99.90;;;;;;5051975;28;20217;-58
2021/12/12 00:08:28;;;;;;;7.57;4.90;;;6.50;99.90;;;;;;5052125;28;20625;-59
2021/12/12 00:11:01;;;;;;;8.13;4.73;;;6.50;99.90;;;;;;5051979;28;20233;-59
2021/12/12 00:13:34;;;;;;;9.00;5.00;;;6.60;99.90;;;;;;5052471;28;20205;-59
2021/12/12 00:16:01;;;;;;;8.37;4.37;;;6.70;99.90;;;;;;5051835;28;20205;-59
2021/12/12 00:18:28;;;;;;;9.13;5.10;;;6.80;99.90;;;;;;5051707;28;20700;-59
2021/12/12 00:20:55;;;;;;;8.07;4.77;;;6.80;99.90;;;;;;5051898;28;20229;-59
2021/12/12 00:23:24;;;;;;;7.63;4.73;;;6.90;99.90;;;;;;5052031;28;20221;-59
2021/12/12 00:25:53;;;;;;;9.20;4.27;;;6.90;99.90;;;;;;5051613;28;20771;-59
2021/12/12 00:28:22;;;;;;;6.87;4.07;;;6.90;99.90;;;;;;5051708;28;20677;-59
2021/12/12 00:30:51;;;;;;;7.43;3.97;;;6.90;99.90;;;;;;5051870;28;20275;-60
2021/12/12 00:33:20;;;;;;;7.87;4.30;;;6.90;99.90;;;;;;5051588;28;20678;-60
2021/12/12 00:35:49;;;;;;;10.00;4.50;;;6.90;99.90;;;;;;5052140;28;20216;-60
2021/12/12 00:38:23;;;;;;;7.10;4.10;;;6.90;99.90;;;;;;5051364;28;20618;-60
2021/12/12 00:40:55;;;;;;;9.57;4.60;;;6.90;99.90;;;;;;5051700;28;20237;-59
2021/12/12 00:43:26;;;;;;;8.37;4.80;;;6.90;99.90;;;;;;5051745;28;20251;-60
2021/12/12 00:45:56;;;;;;;11.40;4.50;;;6.90;99.90;;;;;;5051584;28;20242;-60
2021/12/12 00:48:25;;;;;;;9.77;4.10;;;7.00;99.90;;;;;;5051587;28;20270;-60
2021/12/12 00:50:52;;;;;;;9.37;4.10;;;7.00;99.90;;;;;;5051683;28;20350;-59
2021/12/12 00:53:22;;;;;;;8.90;4.10;;;7.00;99.90;;;;;;5051605;28;20573;-60
2021/12/12 00:55:51;;;;;;;8.80;4.50;;;7.00;99.90;;;;;;5051764;28;20220;-60
2021/12/12 00:58:20;;;;;;;6.67;3.93;;;7.00;99.90;;;;;;5051449;28;20249;-59
2021/12/12 01:00:50;;;;;;;7.23;3.27;;;7.00;99.90;;;;;;5051752;28;20229;-59
2021/12/12 01:03:20;;;;;;;5.00;3.27;;;6.80;99.90;;;;;;5053425;28;20201;-60
2021/12/12 01:05:48;;;;;;;10.57;4.00;;;6.60;99.90;;;;;;5055466;28;20213;-59
2021/12/12 01:08:15;;;;;;;8.13;3.30;;;6.60;99.90;;;;;;5055032;28;20236;-59
2021/12/12 01:10:46;;;;;;;6.93;3.20;;;6.60;99.90;;;;;;5055156;28;20237;-59
2021/12/12 01:13:15;;;;;;;7.20;3.00;;;6.70;99.90;;;;;;5055399;28;20221;-60
2021/12/12 01:15:45;;;;;;;5.30;2.70;;;6.70;99.90;;;;;;5055202;28;20202;-59
2021/12/12 01:18:16;;;;;;;7.07;3.07;;;6.60;99.90;;;;;;5055340;28;20204;-59
2021/12/12 01:20:49;;;;;;;6.47;2.80;;;6.60;99.90;;;;;;5055093;28;20240;-59
2021/12/12 01:23:21;;;;;;;9.63;2.70;;;6.50;99.90;;;;;;5054980;28;20330;-59
2021/12/12 01:25:49;;;;;;;4.87;2.30;;;6.40;99.90;;;;;;5055062;28;20210;-59
2021/12/12 01:28:20;;;;;;;8.03;2.80;;;6.40;99.90;;;;;;5054827;28;20681;-60
2021/12/12 01:30:48;;;;;;;5.67;2.60;;;6.50;99.90;;;;;;5055089;28;20233;-59
2021/12/12 01:33:26;;;;;;;7.23;2.60;;;6.60;99.90;;;;;;5055025;28;20213;-59
2021/12/12 01:35:53;;;;;;;8.83;3.53;;;6.70;99.90;;;;;;5054803;28;20209;-59
2021/12/12 01:41:04;;;;;;;6.17;2.50;;;6.80;99.90;;;;;;5054546;28;20312;-59
2021/12/12 01:43:40;;;;;;;6.43;3.23;;;6.70;99.90;;;;;;5054533;28;20212;-59
2021/12/12 01:46:13;;;;;;;6.23;2.20;;;6.70;99.90;;;;;;5054591;28;20273;-59
2021/12/12 01:48:48;;;;;;;7.33;2.63;;;6.70;99.90;;;;;;5054583;28;20197;-60
2021/12/12 01:51:16;;;;;;;7.03;2.70;;;6.80;99.90;;;;;;5054841;28;20229;-60
2021/12/12 01:53:46;;;;;;;5.30;2.87;;;6.80;99.90;;;;;;5054543;28;20209;-60
2021/12/12 01:56:18;;;;;;;6.33;2.27;;;6.80;99.90;;;;;;5054420;28;20209;-60
2021/12/12 01:58:48;;;;;;;6.77;2.50;;;6.80;99.90;;;;;;5054257;28;20653;-60
2021/12/12 02:01:18;;;;;;;5.30;2.40;;;6.80;99.90;;;;;;5054268;28;20340;-59
2021/12/12 02:03:49;;;;;;;6.63;2.63;;;6.80;99.90;;;;;;5054390;28;20213;-60
2021/12/12 02:06:19;;;;;;;5.40;2.20;;;6.80;99.90;;;;;;5054175;28;20292;-59
2021/12/12 02:08:47;;;;;;;6.97;2.60;;;6.80;99.90;;;;;;5054264;28;20205;-59
2021/12/12 02:11:17;;;;;;;5.50;2.33;;;6.80;99.90;;;;;;5054113;28;20589;-60
2021/12/12 02:13:49;;;;;;;7.13;3.13;;;6.80;99.90;;;;;;5054102;28;20201;-60
2021/12/12 02:16:17;;;;;;;4.87;2.70;;;6.90;99.90;;;;;;5054186;28;20210;-59
2021/12/12 02:18:49;;;;;;;4.80;2.03;;;6.90;99.90;;;;;;5053929;28;20210;-60
2021/12/12 02:21:23;;;;;;;5.33;2.40;;;6.90;99.90;;;;;;5053850;28;20222;-60
2021/12/12 02:24:22;;;;;;;6.63;2.60;;;6.80;99.90;;;;;;5054004;28;20209;-60
2021/12/12 02:35:14;;;;;;;5.80;2.30;;;6.70;99.90;;;;;;5053918;28;20247;-59
2021/12/12 02:37:41;;;;;;;3.47;2.30;;;6.70;99.90;;;;;;5053409;28;20212;-59
2021/12/12 02:40:14;;;;;;;4.97;2.53;;;6.70;99.90;;;;;;5053423;28;20280;-60
2021/12/12 02:42:41;;;;;;;6.43;2.97;;;6.70;99.90;;;;;;5053443;28;20205;-61
2021/12/12 02:45:09;;;;;;;6.13;2.53;;;6.70;99.90;;;;;;5053670;28;20209;-59
2021/12/12 02:47:37;;;;;;;8.17;2.80;;;6.70;99.90;;;;;;5053189;28;20337;-59
2021/12/12 02:50:13;;;;;;;6.23;2.67;;;6.70;99.90;;;;;;5053477;28;20606;-59
2021/12/12 02:52:41;;;;;;;5.77;2.50;;;6.70;99.90;;;;;;5053556;28;20209;-59
2021/12/12 02:55:18;;;;;;;5.33;2.80;;;6.80;99.90;;;;;;5053278;28;20209;-59
2021/12/12 02:57:45;;;;;;;4.67;2.80;;;6.80;99.90;;;;;;5053150;28;20216;-59
2021/12/12 03:00:17;;;;;;;4.37;2.80;;;6.80;99.90;;;;;;5053407;28;20232;-59
2021/12/12 03:02:48;;;;;;;6.77;2.50;;;6.70;99.90;;;;;;5053330;28;20209;-61
2021/12/12 03:05:17;;;;;;;6.70;2.40;;;6.70;99.90;;;;;;5053251;28;20212;-59
2021/12/12 03:07:45;;;;;;;5.17;2.57;;;6.80;99.90;;;;;;5053239;28;20221;-59
2021/12/12 03:10:18;;;;;;;5.30;2.50;;;6.90;99.90;;;;;;5053279;28;20232;-59
2021/12/12 03:12:45;;;;;;;5.83;2.80;;;6.90;99.90;;;;;;5053191;28;20230;-59
2021/12/12 03:15:15;;;;;;;6.70;2.30;;;7.00;99.90;;;;;;5053088;28;20217;-59
2021/12/12 03:17:43;;;;;;;7.70;2.83;;;6.90;99.90;;;;;;5052719;28;20198;-59
2021/12/12 03:20:23;;;;;;;5.30;2.40;;;6.90;99.90;;;;;;5052646;28;20221;-59
2021/12/12 03:22:52;;;;;;;4.90;2.37;;;6.90;99.90;;;;;;5053451;28;20296;-59
2021/12/12 03:25:21;;;;;;;5.53;2.40;;;6.90;99.90;;;;;;5052440;28;20205;-59
2021/12/12 03:27:48;;;;;;;4.97;2.30;;;7.00;99.90;;;;;;5052461;28;20225;-58
2021/12/12 03:30:16;;;;;;;4.93;2.30;;;7.00;99.90;;;;;;5052945;28;20233;-59
2021/12/12 03:32:43;;;;;;;6.60;2.50;;;7.10;99.90;;;;;;5052869;28;20681;-59
2021/12/12 03:35:11;;;;;;;4.70;2.27;;;7.10;99.90;;;;;;5052823;28;20209;-59
2021/12/12 03:37:40;;;;;;;5.53;2.63;;;7.10;99.90;;;;;;5052526;28;20201;-60
2021/12/12 03:40:15;;;;;;;8.33;2.57;;;7.10;99.90;;;;;;5052446;28;20229;-59
2021/12/12 03:42:47;;;;;;;5.63;2.40;;;7.10;99.90;;;;;;5052345;28;20640;-59
2021/12/12 03:45:15;;;;;;;6.63;2.73;;;7.10;99.90;;;;;;5052367;28;20202;-60
2021/12/12 03:47:45;;;;;;;4.93;2.07;;;7.10;99.90;;;;;;5052274;28;20293;-59
2021/12/12 03:50:17;;;;;;;3.97;2.20;;;7.10;99.90;;;;;;5052358;28;20233;-59
2021/12/12 03:52:45;;;;;;;3.67;2.10;;;7.10;99.90;;;;;;5052779;28;20275;-60
2021/12/12 03:55:12;;;;;;;5.13;2.23;;;7.10;99.90;;;;;;5052304;28;20205;-60
2021/12/12 03:57:39;;;;;;;5.17;2.10;;;7.00;99.90;;;;;;5051743;28;20197;-59
2021/12/12 04:00:13;;;;;;;4.43;2.10;;;7.00;99.90;;;;;;5052285;28;20233;-60
2021/12/12 04:02:40;;;;;;;3.60;2.20;;;7.00;99.90;;;;;;5052247;28;20259;-60
2021/12/12 04:05:07;;;;;;;6.93;2.40;;;6.90;99.90;;;;;;5052195;28;20267;-59
2021/12/12 04:07:35;;;;;;;6.07;2.30;;;6.90;99.90;;;;;;5051698;28;20379;-60
2021/12/12 04:10:02;;;;;;;3.33;2.13;;;6.90;99.90;;;;;;5051881;28;20739;-59
2021/12/12 04:12:29;;;;;;;4.63;2.57;;;6.90;99.90;;;;;;5052059;28;20205;-60
2021/12/12 04:14:57;;;;;;;4.93;2.10;;;6.90;99.90;;;;;;5051887;28;20263;-59
2021/12/12 04:17:31;;;;;;;4.30;2.37;;;6.80;99.90;;;;;;5051792;28;20243;-60
2021/12/12 04:20:01;;;;;;;8.57;2.47;;;6.80;99.90;;;;;;5051957;28;20205;-59
2021/12/12 04:22:27;;;;;;;5.13;2.67;;;6.70;99.90;;;;;;5051842;28;20209;-60
2021/12/12 04:24:58;;;;;;;6.07;2.60;;;6.60;99.90;;;;;;5051851;28;20205;-60
2021/12/12 04:27:25;;;;;;;6.60;2.40;;;6.30;99.90;;;;;;5051773;28;20218;-60
2021/12/12 04:29:54;;;;;;;12.13;5.87;;;6.10;99.90;;;;;;5051877;28;20630;-59
2021/12/12 04:32:23;;;;;;;6.97;4.27;;;5.90;99.90;;;;;;5051802;28;20208;-60
2021/12/12 04:34:53;;;;;;;3.90;2.60;;;5.80;99.90;;;;;;5051699;28;20244;-59
2021/12/12 04:37:22;;;;;;;5.17;2.50;;;5.70;99.90;;;;;;5052053;28;20206;-60
2021/12/12 04:39:53;;;;;;;4.67;2.40;;;5.60;99.90;;;;;;5055894;28;20255;-60
2021/12/12 04:42:22;;;;;;;4.73;2.20;;;5.60;99.90;;;;;;5055998;28;20216;-60
2021/12/12 04:44:52;;;;;;;7.37;2.60;;;5.60;99.90;;;;;;5055839;28;20615;-59
2021/12/12 04:50:21;;;;;;;6.80;2.30;;;5.80;99.90;;;;;;5055755;28;20223;-59
2021/12/12 04:52:55;;;;;;;5.33;2.43;;;5.80;99.90;;;;;;5055810;28;20288;-59
2021/12/12 04:55:28;;;;;;;4.73;2.40;;;5.80;99.90;;;;;;5055595;28;20212;-59
2021/12/12 04:58:01;;;;;;;5.50;2.37;;;5.90;99.90;;;;;;5055290;28;20209;-59
2021/12/12 05:00:32;;;;;;;5.17;2.13;;;5.90;99.90;;;;;;5055587;28;20300;-59
2021/12/12 05:03:07;;;;;;;7.90;2.60;;;5.90;99.90;;;;;;5055551;28;20209;-59
2021/12/12 05:05:42;;;;;;;5.10;2.50;;;5.90;99.90;;;;;;5055488;28;20211;-58
2021/12/12 05:08:14;;;;;;;7.63;2.53;;;5.80;99.90;;;;;;5055110;28;20279;-59
2021/12/12 05:10:45;;;;;;;5.40;2.70;;;5.80;99.90;;;;;;5055239;28;20264;-59
2021/12/12 05:13:16;;;;;;;3.37;2.50;;;5.70;99.90;;;;;;5055275;28;20210;-58
2021/12/12 05:15:46;;;;;;;4.37;2.27;;;5.80;99.90;;;;;;5055629;28;20259;-59
2021/12/12 05:18:16;;;;;;;4.47;2.60;;;5.80;99.90;;;;;;5056491;28;20225;-59
2021/12/12 05:20:48;;;;;;;4.00;2.70;;;5.80;99.90;;;;;;5056755;28;20252;-59
2021/12/12 05:23:18;;;;;;;6.63;3.60;;;5.80;99.90;;;;;;5057310;28;20205;-59
2021/12/12 05:25:49;;;;;;;5.83;3.03;;;5.70;99.90;;;;;;5055857;28;20210;-59
2021/12/12 05:28:19;;;;;;;5.27;3.43;;;5.80;99.90;;;;;;5054859;28;20279;-59
2021/12/12 05:30:47;;;;;;;5.63;3.40;;;5.80;99.90;;;;;;5054974;28;20279;-59
2021/12/12 05:33:16;;;;;;;3.60;2.70;;;5.80;99.90;;;;;;5054832;28;20202;-59
2021/12/12 05:35:45;;;;;;;5.37;3.60;;;5.70;99.90;;;;;;5054626;28;20682;-58
2021/12/12 05:38:12;;;;;;;6.77;4.00;;;5.70;99.90;;;;;;5054651;28;20202;-59
2021/12/12 05:40:43;;;;;;;10.70;4.00;;;5.60;99.90;;;;;;5055243;28;20299;-58
2021/12/12 05:43:11;;;;;;;7.50;4.70;;;5.60;99.90;;;;;;5054759;28;20216;-57
2021/12/12 05:45:38;;;;;;;6.53;3.90;;;5.60;99.90;;;;;;5054706;28;20210;-57
2021/12/12 05:48:08;;;;;;;5.90;3.47;;;5.60;99.90;;;;;;5053692;28;20229;-56
2021/12/12 05:50:36;;;;;;;6.53;3.90;;;5.70;99.90;;;;;;5054498;28;20694;-57
2021/12/12 05:53:04;;;;;;;6.17;3.97;;;5.60;99.90;;;;;;5054630;28;20214;-57
2021/12/12 05:55:34;;;;;;;8.27;3.97;;;5.60;99.90;;;;;;5054572;28;20206;-58
2021/12/12 05:58:03;;;;;;;4.73;3.33;;;5.50;99.90;;;;;;5054387;28;20210;-56
2021/12/12 06:00:33;;;;;;;4.33;3.30;;;5.40;99.90;;;;;;5054231;28;20350;-57
2021/12/12 06:03:01;;;;;;;6.50;3.20;;;5.20;99.90;;;;;;5054567;28;20202;-56
2021/12/12 06:05:31;;;;;;;5.30;3.07;;;5.00;99.90;;;;;;5054605;28;20225;-57
2021/12/12 06:07:59;;;;;;;4.70;3.00;;;4.90;99.90;;;;;;5054310;28;20230;-56
2021/12/12 06:10:28;;;;;;;4.83;3.00;;;4.80;99.90;;;;;;5054198;28;20229;-56
2021/12/12 06:12:56;;;;;;;5.83;3.00;;;4.70;99.90;;;;;;5054100;28;20217;-56
2021/12/12 06:15:27;;;;;;;4.10;2.90;;;4.60;99.90;;;;;;5054207;28;20206;-56
2021/12/12 06:17:54;;;;;;;3.50;3.00;;;4.50;99.90;;;;;;5054139;28;20202;-57
2021/12/12 06:20:24;;;;;;;5.93;3.37;;;4.40;99.90;;;;;;5053866;28;20226;-57
2021/12/12 06:22:53;;;;;;;6.60;3.20;;;4.30;99.90;;;;;;5053931;28;20214;-56
2021/12/12 06:25:20;;;;;;;6.07;2.93;;;4.20;99.90;;;;;;5053786;28;20212;-57
2021/12/12 06:27:48;;;;;;;5.27;3.50;;;4.20;99.90;;;;;;5053738;28;20229;-56
2021/12/12 06:30:18;;;;;;;6.00;3.20;;;4.10;99.90;;;;;;5053895;28;20226;-57
2021/12/12 06:32:46;;;;;;;5.43;3.10;;;4.10;99.90;;;;;;5053689;28;20630;-56
2021/12/12 06:35:14;;;;;;;4.20;2.93;;;4.10;99.90;;;;;;5053684;28;20339;-56
2021/12/12 06:37:42;;;;;;;7.13;3.30;;;4.00;99.90;;;;;;5053313;28;20228;-57
2021/12/12 06:40:13;;;;;;;5.23;3.30;;;4.00;99.90;;;;;;5053357;28;20654;-56
2021/12/12 06:42:41;;;;;;;6.47;3.30;;;3.90;99.90;;;;;;5053543;28;20551;-58
2021/12/12 06:45:12;;;;;;;5.50;2.97;;;3.80;99.90;;;;;;5053646;28;20213;-56
2021/12/12 06:47:40;;;;;;;12.60;7.77;;;3.80;99.90;;;;;;5053255;28;20209;-57
2021/12/12 06:50:08;;;;;;;5.47;3.60;;;3.70;99.90;;;;;;5053367;28;20713;-57
2021/12/12 06:52:36;;;;;;;4.30;2.90;;;3.60;99.90;;;;;;5053395;28;20206;-57
2021/12/12 06:55:04;;;;;;;6.20;4.90;;;3.60;99.90;;;;;;5053562;28;20208;-56
2021/12/12 06:57:31;;;;;;;3.83;3.13;;;3.50;99.90;;;;;;5053160;28;20205;-56
2021/12/12 06:59:58;;;;;;;5.33;3.70;;;3.60;99.90;;;;;;5052322;28;20209;-56
2021/12/12 07:02:27;;;;;;;7.30;4.00;;;3.50;99.90;;;;;;5053108;28;20201;-56
2021/12/12 07:04:54;;;;;;;11.20;5.00;;;3.40;99.90;;;;;;5053010;28;20232;-57
2021/12/12 07:07:21;;;;;;;4.00;3.60;;;3.40;99.90;;;;;;5053399;28;20629;-60
2021/12/12 07:09:51;;;;;;;3.97;3.50;;;3.40;99.90;;;;;;5053035;28;20634;-56
2021/12/12 07:12:22;;;;;;;7.07;3.50;;;3.40;99.90;;;;;;5053228;28;20206;-57
2021/12/12 07:14:50;;;;;;;33.07;19.60;;;3.50;99.90;;;;;;5053030;28;20296;-57
2021/12/12 07:17:17;;;;;;;6.90;4.40;;;3.40;99.90;;;;;;5052755;28;20267;-56
2021/12/12 07:19:46;;;;;;;6.00;3.77;;;3.40;99.90;;;;;;5052458;28;20206;-56
2021/12/12 07:22:14;;;;;;;6.63;4.00;;;3.40;99.90;;;;;;5052854;28;20673;-56
2021/12/12 07:24:43;;;;;;;5.10;4.33;;;3.50;99.90;;;;;;5052666;28;20413;-56
2021/12/12 07:27:11;;;;;;;6.07;4.40;;;3.50;99.90;;;;;;5052389;28;20292;-58
2021/12/12 07:29:37;;;;;;;6.80;4.53;;;3.50;99.90;;;;;;5052445;28;20710;-57
2021/12/12 07:32:05;;;;;;;7.00;4.17;;;3.50;99.90;;;;;;5052394;28;20660;-56
2021/12/12 07:34:32;;;;;;;8.87;4.50;;;3.50;99.90;;;;;;5052701;28;20209;-57
2021/12/12 07:37:04;;;;;;;8.73;5.83;;;3.50;99.90;;;;;;5052430;28;20209;-57
2021/12/12 07:39:33;;;;;;;5.53;3.90;;;3.60;99.90;;;;;;5052431;28;20662;-56
2021/12/12 07:42:02;;;;;;;5.37;4.23;;;3.60;99.90;;;;;;5052470;28;20241;-57
2021/12/12 07:44:33;;;;;;;5.93;3.67;;;3.60;99.90;;;;;;5052336;28;20213;-57
2021/12/12 07:47:00;;;;;;;7.60;4.93;;;3.60;99.90;;;;;;5052147;28;20748;-60
2021/12/12 07:49:31;;;;;;;8.13;5.20;;;3.70;99.90;;;;;;5052396;28;20534;-56
2021/12/12 07:52:00;;;;;;;7.23;4.43;;;3.70;99.90;;;;;;5052324;28;20244;-57
2021/12/12 07:54:28;;;;;;;6.77;4.20;;;3.70;99.90;;;;;;5052337;28;20271;-56
2021/12/12 07:56:57;;;;;;;6.77;4.20;;;3.80;99.90;;;;;;5052178;28;20212;-57
2021/12/12 07:59:23;;;;;;;5.10;3.93;;;3.80;99.90;;;;;;5051772;28;20263;-57
2021/12/12 08:01:52;;;;;;;6.43;3.83;;;3.90;99.90;;;;;;5052183;28;20357;-56
2021/12/12 08:04:22;;;;;;;5.50;4.33;;;3.90;99.90;;;;;;5052018;28;20673;-57
2021/12/12 08:06:49;;;;;;;6.00;3.77;;;4.00;99.90;;;;;;5052037;28;20288;-58
2021/12/12 08:09:19;;;;;;;5.47;3.60;;;4.10;99.90;;;;;;5051661;28;20709;-57
2021/12/12 08:11:48;;;;;;;6.23;3.70;;;4.20;99.90;;;;;;5051416;28;20728;-57
2021/12/12 08:14:22;;;;;;;3.90;3.50;;;4.20;99.90;;;;;;5051912;28;20201;-57
2021/12/12 08:16:50;;;;;;;5.57;3.77;;;4.30;99.90;;;;;;5052052;28;20260;-58
2021/12/12 08:19:19;;;;;;;7.40;4.17;;;4.30;99.90;;;;;;5051702;28;20704;-57
2021/12/12 08:21:47;;;;;;;4.00;3.37;;;4.50;99.90;;;;;;5051845;28;20252;-57
2021/12/12 08:24:14;;;;;;;4.50;3.70;;;4.70;99.90;;;;;;5051709;28;20673;-57
2021/12/12 08:26:44;;;;;;;5.60;3.90;;;4.90;99.90;;;;;;5051905;28;20279;-58
2021/12/12 08:29:14;;;;;;;6.53;4.83;;;5.20;99.90;;;;;;5051506;28;20229;-57
2021/12/12 08:31:41;;;;;;;5.03;3.40;;;5.50;99.90;;;;;;5051819;28;20236;-57
2021/12/12 08:34:10;;;;;;;4.80;2.83;;;5.60;99.90;;;;;;5051778;28;20210;-59
2021/12/12 08:36:41;;;;;;;4.03;3.13;;;5.90;99.90;;;;;;5051625;28;20240;-60
2021/12/12 08:39:10;;;;;;;7.10;4.80;;;6.10;99.90;;;;;;5051394;28;20263;-58
2021/12/12 08:41:37;;;;;;;2.97;2.67;;;6.30;99.90;;;;;;5051435;28;20787;-58
2021/12/12 08:44:09;;;;;;;4.43;3.03;;;6.60;99.90;;;;;;5051647;28;20205;-59
2021/12/12 08:46:37;;;;;;;3.30;2.67;;;6.80;99.90;;;;;;5051647;28;20619;-59
2021/12/12 08:49:04;;;;;;;4.87;3.53;;;7.10;99.90;;;;;;5051243;28;20226;-58
2021/12/12 08:51:35;;;;;;;3.50;2.67;;;7.30;99.90;;;;;;5051399;28;20229;-59
2021/12/12 08:54:13;;;;;;;4.47;2.60;;;7.50;99.90;;;;;;5051594;28;20217;-59
2021/12/12 08:56:45;;;;;;;3.13;2.77;;;7.60;99.90;;;;;;5051544;28;20209;-60
2021/12/12 08:59:17;;;;;;;3.23;2.57;;;7.80;99.90;;;;;;5051342;28;20201;-60
2021/12/12 09:01:44;;;;;;;2.97;2.60;;;8.00;99.90;;;;;;5051402;28;20225;-60
2021/12/12 09:04:12;;;;;;;3.97;2.70;;;8.10;99.90;;;;;;5051316;28;20224;-59
2021/12/12 09:06:44;;;;;;;3.10;2.53;;;8.20;99.90;;;;;;5051447;28;20210;-59
2021/12/12 09:09:15;;;;;;;5.90;2.50;;;8.20;99.90;;;;;;5051154;28;20221;-59
2021/12/12 09:11:47;;;;;;;4.57;2.80;;;8.10;99.90;;;;;;5051199;28;20229;-61
2021/12/12 09:14:20;;;;;;;3.93;2.80;;;8.00;99.90;;;;;;5051336;28;20206;-60
2021/12/12 09:16:50;;;;;;;4.73;3.00;;;7.90;99.90;;;;;;5051608;28;20264;-59
2021/12/12 09:19:24;;;;;;;8.80;5.57;;;8.10;99.90;;;;;;5051105;28;20807;-60
2021/12/12 09:21:58;;;;;;;4.50;3.20;;;8.20;99.90;;;;;;5051360;28;20229;-62
2021/12/12 09:24:43;;;;;;;6.63;3.27;;;8.20;99.90;;;;;;5053790;28;20209;-60
2021/12/12 09:27:14;;;;;;;5.13;3.70;;;8.30;99.90;;;;;;5054753;28;20722;-61
2021/12/12 09:29:51;;;;;;;5.77;4.20;;;8.30;99.90;;;;;;5055086;28;20615;-59
2021/12/12 09:32:25;;;;;;;3.93;3.03;;;8.10;99.90;;;;;;5054901;28;20286;-60
2021/12/12 09:34:58;;;;;;;4.13;3.50;;;8.00;99.90;;;;;;5054762;28;20230;-59
2021/12/12 09:37:31;;;;;;;3.70;2.97;;;7.90;99.90;;;;;;5054465;28;20630;-60
2021/12/12 09:40:03;;;;;;;5.10;2.83;;;7.90;99.90;;;;;;5054656;28;20197;-58
2021/12/12 09:42:59;;;;;;;4.80;2.83;;;7.90;99.90;;;;;;5054700;28;20222;-59
2021/12/12 09:45:50;;;;;;;3.93;3.00;;;8.20;99.90;;;;;;5054449;28;20210;-59
2021/12/12 09:52:18;;;;;;;3.73;2.40;;;8.40;99.90;;;;;;5054466;28;20636;-57
2021/12/12 09:54:50;;;;;;;3.40;2.40;;;8.40;99.90;;;;;;5015444;28;20615;-58
2021/12/12 09:57:23;;;;;;;2.97;2.33;;;8.40;99.90;;;;;;5054202;28;20205;-58
2021/12/12 10:00:24;;;;;;;3.40;2.33;;;8.30;99.90;;;;;;5054274;28;20292;-58
2021/12/12 10:03:22;;;;;;;4.43;2.43;;;8.40;99.90;;;;;;4954121;29;20212;-59
2021/12/12 10:05:54;;;;;;;4.30;2.30;;;8.50;99.90;;;;;;4946252;29;20216;-58
2021/12/12 10:08:31;;;;;;;3.07;2.47;;;8.70;99.90;;;;;;5023828;28;20212;-58
2021/12/12 10:11:02;;;;;;;5.17;2.50;;;8.80;99.90;;;;;;5054047;28;20698;-59
2021/12/12 10:13:35;;;;;;;2.97;2.33;;;8.80;99.90;;;;;;5054505;28;20209;-58
2021/12/12 10:16:07;;;;;;;2.20;2.00;;;8.80;99.90;;;;;;5054271;28;20220;-59
2021/12/12 10:18:44;;;;;;;3.23;2.80;;;8.80;99.90;;;;;;5053898;28;20206;-60
2021/12/12 10:21:16;;;;;;;2.90;2.33;;;8.80;99.90;;;;;;5054194;28;20234;-59
2021/12/12 10:24:00;;;;;;;3.27;1.90;;;8.90;99.90;;;;;;5054100;28;20213;-59
2021/12/12 10:26:32;;;;;;;2.73;2.37;;;8.90;99.90;;;;;;5053983;28;20217;-58
2021/12/12 10:29:03;;;;;;;4.67;2.50;;;9.00;99.90;;;;;;5053755;28;20232;-58
2021/12/12 10:31:33;;;;;;;2.87;2.20;;;9.10;99.90;;;;;;5053850;28;20233;-58
2021/12/12 10:34:05;;;;;;;4.13;2.30;;;9.00;99.90;;;;;;5054318;28;20202;-60
2021/12/12 10:36:37;;;;;;;2.23;1.97;;;9.00;99.90;;;;;;5053866;28;20205;-59
2021/12/12 10:39:07;;;;;;;2.87;2.23;;;9.10;99.90;;;;;;5053430;28;20206;-59
2021/12/12 10:41:38;;;;;;;2.70;2.10;;;9.20;99.90;;;;;;5054268;28;20230;-59
2021/12/12 10:44:17;;;;;;;2.57;2.10;;;9.20;99.90;;;;;;5054844;28;20584;-58
2021/12/12 10:46:51;;;;;;;3.90;2.50;;;9.40;99.90;;;;;;5055374;28;20200;-58
2021/12/12 10:49:27;;;;;;;3.60;2.50;;;9.50;99.90;;;;;;5054215;28;20256;-58
2021/12/12 10:51:58;;;;;;;3.53;2.03;;;9.60;99.90;;;;;;5053535;28;20247;-58
2021/12/12 10:54:30;;;;;;;3.50;2.10;;;9.50;99.90;;;;;;5053806;28;20213;-56
2021/12/12 10:57:04;;;;;;;6.23;2.50;;;9.60;99.90;;;;;;5053524;28;20205;-59
2021/12/12 10:59:35;;;;;;;2.20;1.77;;;9.50;99.90;;;;;;5053077;28;20677;-61
2021/12/12 11:02:07;;;;;;;2.40;2.20;;;9.50;99.90;;;;;;5053196;28;20379;-58
2021/12/12 11:04:49;;;;;;;2.60;2.10;;;9.50;99.90;;;;;;5053024;28;20206;-58
2021/12/12 11:07:21;;;;;;;3.03;2.30;;;9.50;99.90;;;;;;5053138;28;20213;-58
2021/12/12 11:09:57;;;;;;;2.33;2.07;;;9.50;99.90;;;;;;5053494;28;20312;-58
2021/12/12 11:12:30;;;;;;;2.27;1.97;;;9.70;99.90;;;;;;5053305;28;20205;-58
2021/12/12 11:15:04;;;;;;;2.90;2.17;;;9.80;99.90;;;;;;5053389;28;20209;-60
2021/12/12 11:17:34;;;;;;;2.13;1.93;;;9.90;99.90;;;;;;5053207;28;20209;-59
2021/12/12 11:20:07;;;;;;;3.60;2.17;;;9.90;99.90;;;;;;5053549;28;20263;-58
2021/12/12 11:22:36;;;;;;;2.80;2.00;;;9.90;99.90;;;;;;5053140;28;20607;-58
2021/12/12 11:25:07;;;;;;;3.80;2.73;;;9.90;99.90;;;;;;5053092;28;20298;-58
2021/12/12 11:27:39;;;;;;;3.17;2.17;;;10.00;99.90;;;;;;5053202;28;20263;-58
2021/12/12 11:30:14;;;;;;;4.23;2.50;;;10.00;99.90;;;;;;5052839;28;20229;-59
2021/12/12 11:32:42;;;;;;;3.37;2.33;;;10.10;99.90;;;;;;5053033;28;20223;-58
2021/12/12 11:35:13;;;;;;;4.07;2.27;;;10.10;99.90;;;;;;5053211;28;20209;-61
2021/12/12 11:37:44;;;;;;;1.93;1.70;;;10.10;99.90;;;;;;5052968;28;20212;-59
2021/12/12 11:40:20;;;;;;;3.57;2.00;;;10.20;99.90;;;;;;5052673;28;20240;-60
2021/12/12 11:42:52;;;;;;;2.20;2.00;;;10.10;99.90;;;;;;5052974;28;20288;-59
2021/12/12 11:45:25;;;;;;;2.43;1.90;;;10.10;99.90;;;;;;5053127;28;20206;-59
2021/12/12 11:48:15;;;;;;;4.20;2.60;;;10.10;99.90;;;;;;5052202;28;20206;-58
2021/12/12 11:50:49;;;;;;;4.90;2.43;;;10.20;99.90;;;;;;5052537;28;20671;-59
2021/12/12 11:53:22;;;;;;;2.70;2.13;;;10.20;99.90;;;;;;5052815;28;20722;-58
2021/12/12 11:55:54;;;;;;;2.73;1.80;;;10.40;99.90;;;;;;5053201;28;20196;-58
2021/12/12 11:58:27;;;;;;;4.20;2.20;;;10.40;99.90;;;;;;5052341;28;20604;-59
2021/12/12 12:01:04;;;;;;;2.80;2.20;;;10.40;99.90;;;;;;5052617;28;20226;-60
2021/12/12 12:03:45;;;;;;;4.03;1.90;;;10.40;99.90;;;;;;5053125;28;20212;-59
2021/12/12 12:06:21;;;;;;;6.00;2.00;;;10.30;99.90;;;;;;5052980;28;20215;-59
2021/12/12 12:09:01;;;;;;;3.83;1.87;;;10.30;99.90;;;;;;5052348;28;20204;-58
2021/12/12 12:11:46;;;;;;;2.90;1.83;;;10.40;99.90;;;;;;5052093;28;20240;-58
2021/12/12 12:14:24;;;;;;;3.50;1.90;;;10.40;99.90;;;;;;5052597;28;20213;-58
2021/12/12 12:16:58;;;;;;;5.43;3.00;;;10.40;99.90;;;;;;5052322;28;20205;-58
2021/12/12 12:19:38;;;;;;;2.50;1.83;;;10.40;99.90;;;;;;5051968;28;20206;-59
2021/12/12 12:22:23;;;;;;;2.80;1.90;;;10.40;99.90;;;;;;5052462;28;20233;-59
2021/12/12 12:25:01;;;;;;;1.77;1.47;;;10.40;99.90;;;;;;5052497;28;20205;-57
2021/12/12 12:27:35;;;;;;;2.50;1.73;;;10.40;99.90;;;;;;5051709;28;20300;-58
2021/12/12 12:30:31;;;;;;;4.40;2.27;;;10.50;99.90;;;;;;5051903;28;20260;-58
2021/12/12 12:33:34;;;;;;;2.70;1.90;;;10.40;99.90;;;;;;5052146;28;20256;-58
2021/12/12 12:37:10;;;;;;;2.50;1.80;;;10.60;99.90;;;;;;5038058;28;20209;-59
2021/12/12 12:40:51;;;;;;;4.30;2.67;;;10.50;99.90;;;;;;5052051;28;20236;-57
2021/12/12 12:43:54;;;;;;;3.77;2.33;;;10.50;99.90;;;;;;5051709;28;20733;-59
2021/12/12 12:47:06;;;;;;;2.17;1.60;;;10.50;99.90;;;;;;5051784;28;20206;-59
2021/12/12 12:50:07;;;;;;;3.03;1.60;;;10.60;99.90;;;;;;5051608;28;20205;-58
2021/12/12 12:53:01;;;;;;;10.63;7.23;;;10.60;99.90;;;;;;5051674;28;20204;-59
2021/12/12 12:55:52;;;;;;;6.50;4.97;;;10.70;99.90;;;;;;4997668;28;20205;-58
2021/12/12 12:58:35;;;;;;;3.67;2.10;;;10.80;99.90;;;;;;5051962;28;20201;-59
2021/12/12 13:01:06;;;;;;;1.70;1.50;;;10.70;99.90;;;;;;5055621;28;20291;-58
2021/12/12 13:03:53;;;;;;;3.70;1.80;;;10.80;99.90;;;;;;5055594;28;20741;-59
2021/12/12 13:06:58;;;;;;;5.63;1.67;;;10.90;99.90;;;;;;5055320;28;20206;-59
2021/12/12 13:09:41;;;;;;;2.70;1.43;;;10.80;99.90;;;;;;5054959;28;20678;-59
2021/12/12 13:12:21;;;;;;;2.60;1.70;;;10.80;99.90;;;;;;5055422;28;20263;-59
2021/12/12 13:14:53;;;;;;;3.57;1.67;;;10.80;99.90;;;;;;5055355;28;20666;-59
2021/12/12 13:17:40;;;;;;;2.57;1.40;;;10.80;99.90;;;;;;5055258;28;20209;-58
2021/12/12 13:20:20;;;;;;;2.30;1.73;;;10.70;99.90;;;;;;5055141;28;20312;-59
2021/12/12 13:22:55;;;;;;;2.60;1.50;;;10.70;99.90;;;;;;5055137;28;20201;-59
2021/12/12 13:25:28;;;;;;;2.90;1.60;;;10.60;99.90;;;;;;5054808;28;20704;-58
2021/12/12 13:28:05;;;;;;;4.07;1.60;;;10.70;99.90;;;;;;5055043;28;20336;-60
2021/12/12 13:30:43;;;;;;;3.20;1.60;;;10.70;99.90;;;;;;5054509;28;20233;-60
2021/12/12 13:33:19;;;;;;;2.20;1.37;;;10.60;99.90;;;;;;5055106;28;20205;-59
2021/12/12 13:36:00;;;;;;;2.20;1.20;;;10.70;99.90;;;;;;5054923;28;20205;-58
2021/12/12 13:38:39;;;;;;;4.87;2.87;;;10.70;99.90;;;;;;5054723;28;20205;-59
2021/12/12 13:41:13;;;;;;;3.30;1.80;;;10.70;99.90;;;;;;5054362;28;20319;-57